createdAt,value
2018-05-05T00:00:26.198Z,19.40
2018-05-05T00:01:31.317Z,19.40
2018-05-05T00:02:36.258Z,19.40
2018-05-05T00:03:41.131Z,19.40
2018-05-05T00:04:46.089Z,19.40
2018-05-05T00:05:51.092Z,19.40
2018-05-05T00:06:55.864Z,19.40
2018-05-05T00:08:00.847Z,19.40
2018-05-05T00:09:05.912Z,19.40
2018-05-05T00:10:11.116Z,19.40
2018-05-05T00:11:16.302Z,19.40
2018-05-05T00:12:21.292Z,19.40
2018-05-05T00:13:26.275Z,19.40
2018-05-05T00:14:31.157Z,19.40
2018-05-05T00:15:36.303Z,19.30
2018-05-05T00:16:41.117Z,19.40
2018-05-05T00:17:46.142Z,19.40
2018-05-05T00:18:51.057Z,19.40
2018-05-05T00:19:56.145Z,19.30
2018-05-05T00:21:01.205Z,19.40
2018-05-05T00:22:06.329Z,19.30
2018-05-05T00:23:11.273Z,19.40
2018-05-05T00:24:16.121Z,19.40
2018-05-05T00:25:21.177Z,19.40
2018-05-05T00:26:26.246Z,19.40
2018-05-05T00:27:31.183Z,19.40
2018-05-05T00:28:36.124Z,19.30
2018-05-05T00:29:41.015Z,19.40
2018-05-05T00:30:45.790Z,19.40
2018-05-05T00:31:50.769Z,19.30
2018-05-05T00:32:55.801Z,19.40
2018-05-05T00:34:00.687Z,19.40
2018-05-05T00:35:05.482Z,19.40
2018-05-05T00:36:10.195Z,19.40
2018-05-05T00:37:14.855Z,19.40
2018-05-05T00:38:19.703Z,19.40
2018-05-05T00:39:24.612Z,19.40
2018-05-05T00:40:29.599Z,19.40
2018-05-05T00:41:34.302Z,19.40
2018-05-05T00:42:41.966Z,19.40
2018-05-05T00:43:46.616Z,19.30
2018-05-05T00:44:51.432Z,19.40
2018-05-05T00:45:56.119Z,19.30
2018-05-05T00:47:00.688Z,19.40
2018-05-05T00:48:05.395Z,19.40
2018-05-05T00:49:10.522Z,19.40
2018-05-05T00:50:15.298Z,19.40
2018-05-05T00:51:20.174Z,19.40
2018-05-05T00:52:24.808Z,19.40
2018-05-05T00:53:29.872Z,19.40
2018-05-05T00:54:34.507Z,19.40
2018-05-05T00:55:39.337Z,19.40
2018-05-05T00:56:44.497Z,19.40
2018-05-05T00:57:49.197Z,19.40
2018-05-05T00:58:54.117Z,19.40
2018-05-05T00:59:59.175Z,19.40
2018-05-05T01:01:04.167Z,19.40
2018-05-05T01:02:09.089Z,19.30
2018-05-05T01:03:13.939Z,19.40
2018-05-05T01:04:18.919Z,19.30
2018-05-05T01:05:24.063Z,19.40
2018-05-05T01:06:28.835Z,19.30
2018-05-05T01:07:33.841Z,19.30
2018-05-05T01:08:38.821Z,19.30
2018-05-05T01:09:43.847Z,19.40
2018-05-05T01:10:48.891Z,19.30
2018-05-05T01:11:53.916Z,19.40
2018-05-05T01:12:58.940Z,19.40
2018-05-05T01:14:04.007Z,19.40
2018-05-05T01:15:08.974Z,19.30
2018-05-05T01:16:14.002Z,19.30
2018-05-05T01:17:19.067Z,19.40
2018-05-05T01:18:24.151Z,19.30
2018-05-05T01:19:29.233Z,19.40
2018-05-05T01:20:33.990Z,19.30
2018-05-05T01:21:38.854Z,19.40
2018-05-05T01:22:43.677Z,19.30
2018-05-05T01:23:48.360Z,19.30
2018-05-05T01:24:53.208Z,19.30
2018-05-05T01:25:58.093Z,19.30
2018-05-05T01:27:03.177Z,19.30
2018-05-05T01:28:08.013Z,19.30
2018-05-05T01:29:12.881Z,19.30
2018-05-05T01:30:17.960Z,19.30
2018-05-05T01:31:22.853Z,19.30
2018-05-05T01:32:28.029Z,19.30
2018-05-05T01:33:33.163Z,19.30
2018-05-05T01:34:37.940Z,19.30
2018-05-05T01:35:42.961Z,19.30
2018-05-05T01:36:47.789Z,19.30
2018-05-05T01:37:52.817Z,19.30
2018-05-05T01:38:57.647Z,19.30
2018-05-05T01:40:02.693Z,19.30
2018-05-05T01:41:07.879Z,19.30
2018-05-05T01:42:12.896Z,19.30
2018-05-05T01:43:17.864Z,19.30
2018-05-05T01:44:22.954Z,19.30
2018-05-05T01:45:27.686Z,19.30
2018-05-05T01:46:32.317Z,19.30
2018-05-05T01:47:37.287Z,19.30
2018-05-05T01:48:42.179Z,19.30
2018-05-05T01:49:47.052Z,19.30
2018-05-05T01:50:51.639Z,19.30
2018-05-05T01:51:56.519Z,19.30
2018-05-05T01:53:01.409Z,19.30
2018-05-05T01:54:06.127Z,19.30
2018-05-05T01:55:11.007Z,19.30
2018-05-05T01:56:15.942Z,19.30
2018-05-05T01:57:20.941Z,19.30
2018-05-05T01:58:25.800Z,19.30
2018-05-05T01:59:30.677Z,19.30
2018-05-05T02:00:35.660Z,19.30
2018-05-05T02:01:40.526Z,19.30
2018-05-05T02:02:45.210Z,19.30
2018-05-05T02:03:50.075Z,19.30
2018-05-05T02:04:54.940Z,19.30
2018-05-05T02:05:59.582Z,19.30
2018-05-05T02:07:04.627Z,19.30
2018-05-05T02:08:09.515Z,19.30
2018-05-05T02:09:14.555Z,19.30
2018-05-05T02:10:19.531Z,19.30
2018-05-05T02:11:24.724Z,19.30
2018-05-05T02:12:29.771Z,19.30
2018-05-05T02:13:34.756Z,19.30
2018-05-05T02:14:39.731Z,19.30
2018-05-05T02:15:44.820Z,19.30
2018-05-05T02:16:49.883Z,19.30
2018-05-05T02:17:54.827Z,19.30
2018-05-05T02:18:59.736Z,19.30
2018-05-05T02:20:04.671Z,19.30
2018-05-05T02:21:09.555Z,19.30
2018-05-05T02:22:14.429Z,19.30
2018-05-05T02:23:19.182Z,19.30
2018-05-05T02:24:24.183Z,19.30
2018-05-05T02:25:28.887Z,19.30
2018-05-05T02:26:33.939Z,19.30
2018-05-05T02:27:38.865Z,19.30
2018-05-05T02:28:43.551Z,19.30
2018-05-05T02:29:48.476Z,19.30
2018-05-05T02:30:53.354Z,19.30
2018-05-05T02:31:58.318Z,19.30
2018-05-05T02:33:02.986Z,19.30
2018-05-05T02:34:07.898Z,19.30
2018-05-05T02:35:12.823Z,19.30
2018-05-05T02:36:17.537Z,19.30
2018-05-05T02:37:22.315Z,19.30
2018-05-05T02:38:27.387Z,19.30
2018-05-05T02:39:32.041Z,19.30
2018-05-05T02:40:36.957Z,19.30
2018-05-05T02:41:41.946Z,19.30
2018-05-05T02:42:47.009Z,19.30
2018-05-05T02:43:51.731Z,19.30
2018-05-05T02:44:56.626Z,19.30
2018-05-05T02:46:01.300Z,19.30
2018-05-05T02:47:06.308Z,19.30
2018-05-05T02:48:11.315Z,19.30
2018-05-05T02:49:16.049Z,19.30
2018-05-05T02:50:20.666Z,19.30
2018-05-05T02:51:25.703Z,19.30
2018-05-05T02:52:30.687Z,19.30
2018-05-05T02:53:35.649Z,19.30
2018-05-05T02:54:40.260Z,19.30
2018-05-05T02:55:45.141Z,19.30
2018-05-05T02:56:49.962Z,19.20
2018-05-05T02:57:54.675Z,19.30
2018-05-05T02:58:59.543Z,19.30
2018-05-05T03:00:04.608Z,19.30
2018-05-05T03:01:09.449Z,19.30
2018-05-05T03:02:14.368Z,19.30
2018-05-05T03:03:19.360Z,19.30
2018-05-05T03:04:24.210Z,19.30
2018-05-05T03:05:28.947Z,19.30
2018-05-05T03:06:33.898Z,19.30
2018-05-05T03:07:39.042Z,19.20
2018-05-05T03:08:44.136Z,19.20
2018-05-05T03:09:48.953Z,19.30
2018-05-05T03:10:53.860Z,19.30
2018-05-05T03:11:58.798Z,19.30
2018-05-05T03:13:03.983Z,19.30
2018-05-05T03:14:08.990Z,19.20
2018-05-05T03:15:13.665Z,19.30
2018-05-05T03:16:18.706Z,19.30
2018-05-05T03:17:23.833Z,19.30
2018-05-05T03:18:29.982Z,19.30
2018-05-05T03:19:34.891Z,19.30
2018-05-05T03:20:40.054Z,19.30
2018-05-05T03:21:45.164Z,19.30
2018-05-05T03:22:50.236Z,19.30
2018-05-05T03:23:55.242Z,19.30
2018-05-05T03:25:00.288Z,19.30
2018-05-05T03:26:05.212Z,19.30
2018-05-05T03:27:10.034Z,19.30
2018-05-05T03:28:14.826Z,19.30
2018-05-05T03:29:19.838Z,19.20
2018-05-05T03:30:24.642Z,19.30
2018-05-05T03:31:29.652Z,19.20
2018-05-05T03:32:34.610Z,19.20
2018-05-05T03:33:39.557Z,19.30
2018-05-05T03:34:44.287Z,19.30
2018-05-05T03:35:49.008Z,19.20
2018-05-05T03:36:54.076Z,19.30
2018-05-05T03:38:00.986Z,19.30
2018-05-05T03:39:05.776Z,19.30
2018-05-05T03:40:10.479Z,19.20
2018-05-05T03:41:15.152Z,19.20
2018-05-05T03:42:20.031Z,19.30
2018-05-05T03:43:25.055Z,19.30
2018-05-05T03:44:29.828Z,19.20
2018-05-05T03:45:34.458Z,19.20
2018-05-05T03:46:39.151Z,19.20
2018-05-05T03:47:43.732Z,19.20
2018-05-05T03:48:48.452Z,19.30
2018-05-05T03:49:53.213Z,19.20
2018-05-05T03:50:58.178Z,19.20
2018-05-05T03:52:02.821Z,19.20
2018-05-05T03:53:07.641Z,19.20
2018-05-05T03:54:12.653Z,19.20
2018-05-05T03:55:17.450Z,19.20
2018-05-05T03:56:22.395Z,19.20
2018-05-05T03:57:27.472Z,19.20
2018-05-05T03:58:32.373Z,19.20
2018-05-05T03:59:37.380Z,19.20
2018-05-05T04:00:43.103Z,19.20
2018-05-05T04:01:48.201Z,19.20
2018-05-05T04:02:53.154Z,19.20
2018-05-05T04:03:58.241Z,19.20
2018-05-05T04:05:03.388Z,19.20
2018-05-05T04:06:08.313Z,19.20
2018-05-05T04:07:13.266Z,19.20
2018-05-05T04:08:18.373Z,19.20
2018-05-05T04:09:23.194Z,19.20
2018-05-05T04:10:28.043Z,19.20
2018-05-05T04:11:33.121Z,19.20
2018-05-05T04:12:38.057Z,19.20
2018-05-05T04:13:43.076Z,19.20
2018-05-05T04:14:47.751Z,19.20
2018-05-05T04:15:52.513Z,19.20
2018-05-05T04:16:57.552Z,19.20
2018-05-05T04:18:02.565Z,19.20
2018-05-05T04:19:07.339Z,19.20
2018-05-05T04:20:12.267Z,19.20
2018-05-05T04:21:17.230Z,19.20
2018-05-05T04:22:22.024Z,19.20
2018-05-05T04:23:26.966Z,19.20
2018-05-05T04:24:32.052Z,19.20
2018-05-05T04:25:36.908Z,19.20
2018-05-05T04:26:41.738Z,19.20
2018-05-05T04:27:46.720Z,19.20
2018-05-05T04:28:51.773Z,19.20
2018-05-05T04:29:56.653Z,19.20
2018-05-05T04:31:01.548Z,19.20
2018-05-05T04:32:06.393Z,19.20
2018-05-05T04:33:11.226Z,19.20
2018-05-05T04:34:16.214Z,19.20
2018-05-05T04:35:21.179Z,19.20
2018-05-05T04:36:25.869Z,19.20
2018-05-05T04:37:30.675Z,19.20
2018-05-05T04:38:35.499Z,19.20
2018-05-05T04:39:40.300Z,19.20
2018-05-05T04:40:45.232Z,19.20
2018-05-05T04:41:49.871Z,19.20
2018-05-05T04:42:54.881Z,19.20
2018-05-05T04:43:59.742Z,19.20
2018-05-05T04:45:04.398Z,19.20
2018-05-05T04:46:09.075Z,19.20
2018-05-05T04:47:13.901Z,19.20
2018-05-05T04:48:18.974Z,19.20
2018-05-05T04:49:23.855Z,19.20
2018-05-05T04:50:28.943Z,19.20
2018-05-05T04:51:33.948Z,19.20
2018-05-05T04:52:38.988Z,19.20
2018-05-05T04:53:43.792Z,19.20
2018-05-05T04:54:48.807Z,19.20
2018-05-05T04:55:53.956Z,19.20
2018-05-05T04:56:58.921Z,19.20
2018-05-05T04:58:03.618Z,19.20
2018-05-05T04:59:08.467Z,19.20
2018-05-05T05:00:13.458Z,19.20
2018-05-05T05:01:18.983Z,19.20
2018-05-05T05:02:23.933Z,19.20
2018-05-05T05:03:29.016Z,19.30
2018-05-05T05:04:33.717Z,19.30
2018-05-05T05:05:38.835Z,19.30
2018-05-05T05:06:43.812Z,19.30
2018-05-05T05:07:48.803Z,19.40
2018-05-05T05:08:53.792Z,19.40
2018-05-05T05:09:58.733Z,19.40
2018-05-05T05:11:03.784Z,19.40
2018-05-05T05:12:08.730Z,19.40
2018-05-05T05:13:13.833Z,19.40
2018-05-05T05:14:18.746Z,19.50
2018-05-05T05:15:23.842Z,19.50
2018-05-05T05:16:29.096Z,19.50
2018-05-05T05:17:34.286Z,19.60
2018-05-05T05:18:39.044Z,19.60
2018-05-05T05:19:44.412Z,19.60
2018-05-05T05:20:49.281Z,19.70
2018-05-05T05:21:54.303Z,19.70
2018-05-05T05:22:59.328Z,19.80
2018-05-05T05:24:04.183Z,19.80
2018-05-05T05:25:09.096Z,19.80
2018-05-05T05:26:13.831Z,19.80
2018-05-05T05:27:18.767Z,19.90
2018-05-05T05:28:23.943Z,19.90
2018-05-05T05:29:28.816Z,20.00
2018-05-05T05:30:33.959Z,20.10
2018-05-05T05:31:38.919Z,20.10
2018-05-05T05:32:43.844Z,20.20
2018-05-05T05:33:48.727Z,20.20
2018-05-05T05:34:53.649Z,20.30
2018-05-05T05:35:58.584Z,20.30
2018-05-05T05:37:03.506Z,20.30
2018-05-05T05:38:08.455Z,20.30
2018-05-05T05:39:13.514Z,20.40
2018-05-05T05:40:18.292Z,20.40
2018-05-05T05:41:23.225Z,20.40
2018-05-05T05:42:28.204Z,20.40
2018-05-05T05:43:33.058Z,20.40
2018-05-05T05:44:37.666Z,20.40
2018-05-05T05:45:42.768Z,20.40
2018-05-05T05:46:48.013Z,20.40
2018-05-05T05:47:52.893Z,20.40
2018-05-05T05:48:57.857Z,20.40
2018-05-05T05:50:02.635Z,20.40
2018-05-05T05:51:07.237Z,20.40
2018-05-05T05:52:11.984Z,20.40
2018-05-05T05:53:16.536Z,20.40
2018-05-05T05:54:21.249Z,20.40
2018-05-05T05:55:26.157Z,20.40
2018-05-05T05:56:30.937Z,20.30
2018-05-05T05:57:35.724Z,20.30
2018-05-05T05:58:40.719Z,20.20
2018-05-05T05:59:45.747Z,20.20
2018-05-05T06:00:50.327Z,20.20
2018-05-05T06:01:55.049Z,20.20
2018-05-05T06:02:59.938Z,20.20
2018-05-05T06:04:04.761Z,20.20
2018-05-05T06:05:09.625Z,20.20
2018-05-05T06:06:14.488Z,20.20
2018-05-05T06:07:19.567Z,20.20
2018-05-05T06:08:24.416Z,20.20
2018-05-05T06:09:29.296Z,20.20
2018-05-05T06:10:33.981Z,20.20
2018-05-05T06:11:38.773Z,20.30
2018-05-05T06:12:43.776Z,20.30
2018-05-05T06:13:48.849Z,20.30
2018-05-05T06:14:53.849Z,20.20
2018-05-05T06:15:58.687Z,20.20
2018-05-05T06:17:03.636Z,20.20
2018-05-05T06:18:08.826Z,20.20
2018-05-05T06:19:13.599Z,20.20
2018-05-05T06:20:18.532Z,20.10
2018-05-05T06:21:23.258Z,20.20
2018-05-05T06:22:28.045Z,20.20
2018-05-05T06:23:33.101Z,20.10
2018-05-05T06:24:41.292Z,20.10
2018-05-05T06:25:46.083Z,20.10
2018-05-05T06:26:50.968Z,20.10
2018-05-05T06:27:55.963Z,20.00
2018-05-05T06:29:00.980Z,20.00
2018-05-05T06:30:05.897Z,20.00
2018-05-05T06:31:11.305Z,20.00
2018-05-05T06:32:16.182Z,20.00
2018-05-05T06:33:20.974Z,20.00
2018-05-05T06:34:26.112Z,20.00
2018-05-05T06:35:31.156Z,19.90
2018-05-05T06:36:36.074Z,20.00
2018-05-05T06:37:40.984Z,20.00
2018-05-05T06:38:45.824Z,20.00
2018-05-05T06:39:50.971Z,20.00
2018-05-05T06:40:55.780Z,20.00
2018-05-05T06:42:00.763Z,20.00
2018-05-05T06:43:05.721Z,20.00
2018-05-05T06:44:10.670Z,20.00
2018-05-05T06:45:15.331Z,20.00
2018-05-05T06:46:20.140Z,20.00
2018-05-05T06:47:25.043Z,20.00
2018-05-05T06:48:29.908Z,20.00
2018-05-05T06:49:34.906Z,20.00
2018-05-05T06:50:39.823Z,20.00
2018-05-05T06:51:44.691Z,20.00
2018-05-05T06:52:49.496Z,20.00
2018-05-05T06:53:54.534Z,20.00
2018-05-05T06:54:59.683Z,20.10
2018-05-05T06:56:04.536Z,20.10
2018-05-05T06:57:09.590Z,20.00
2018-05-05T06:58:14.442Z,20.00
2018-05-05T06:59:19.320Z,20.00
2018-05-05T07:00:24.043Z,20.00
2018-05-05T07:01:29.118Z,20.00
2018-05-05T07:02:34.049Z,20.00
2018-05-05T07:03:38.959Z,20.00
2018-05-05T07:04:43.888Z,20.10
2018-05-05T07:05:48.775Z,20.10
2018-05-05T07:06:53.835Z,20.10
2018-05-05T07:07:58.692Z,20.00
2018-05-05T07:09:03.710Z,20.00
2018-05-05T07:10:08.782Z,20.00
2018-05-05T07:11:14.468Z,20.00
2018-05-05T07:12:19.441Z,20.00
2018-05-05T07:13:24.218Z,20.00
2018-05-05T07:14:29.236Z,20.00
2018-05-05T07:15:34.430Z,19.90
2018-05-05T07:16:39.522Z,20.00
2018-05-05T07:17:44.647Z,20.00
2018-05-05T07:18:49.711Z,20.00
2018-05-05T07:19:54.904Z,20.00
2018-05-05T07:20:59.850Z,20.00
2018-05-05T07:22:04.950Z,19.90
2018-05-05T07:23:09.619Z,19.90
2018-05-05T07:24:14.665Z,19.90
2018-05-05T07:25:20.394Z,19.90
2018-05-05T07:26:25.192Z,19.90
2018-05-05T07:27:29.939Z,19.90
2018-05-05T07:28:34.876Z,19.90
2018-05-05T07:29:40.535Z,19.90
2018-05-05T07:30:45.761Z,19.90
2018-05-05T07:31:50.737Z,19.90
2018-05-05T07:32:55.477Z,19.90
2018-05-05T07:34:00.600Z,19.90
2018-05-05T07:35:05.759Z,19.80
2018-05-05T07:36:10.883Z,19.90
2018-05-05T07:37:15.851Z,19.90
2018-05-05T07:38:20.991Z,19.90
2018-05-05T07:39:26.714Z,19.90
2018-05-05T07:40:31.889Z,19.90
2018-05-05T07:41:36.884Z,19.90
2018-05-05T07:42:44.603Z,19.90
2018-05-05T07:43:49.716Z,19.90
2018-05-05T07:44:55.746Z,19.90
2018-05-05T07:46:00.487Z,19.90
2018-05-05T07:47:05.225Z,19.90
2018-05-05T07:48:10.156Z,19.90
2018-05-05T07:49:15.060Z,19.80
2018-05-05T07:50:20.131Z,19.90
2018-05-05T07:51:25.136Z,19.80
2018-05-05T07:52:29.795Z,19.80
2018-05-05T07:53:34.478Z,19.80
2018-05-05T07:54:39.388Z,19.80
2018-05-05T07:55:44.538Z,19.80
2018-05-05T07:56:49.660Z,19.80
2018-05-05T07:57:54.920Z,19.80
2018-05-05T07:58:59.769Z,19.80
2018-05-05T08:00:04.720Z,19.80
2018-05-05T08:01:09.734Z,19.70
2018-05-05T08:02:14.580Z,19.70
2018-05-05T08:03:19.526Z,19.70
2018-05-05T08:04:24.347Z,19.70
2018-05-05T08:05:29.476Z,19.70
2018-05-05T08:06:34.277Z,19.70
2018-05-05T08:07:40.020Z,19.70
2018-05-05T08:08:45.192Z,19.70
2018-05-05T08:09:50.103Z,19.70
2018-05-05T08:10:54.817Z,19.70
2018-05-05T08:11:59.737Z,19.70
2018-05-05T08:13:04.738Z,19.70
2018-05-05T08:14:09.562Z,19.70
2018-05-05T08:15:14.549Z,19.70
2018-05-05T08:16:19.486Z,19.70
2018-05-05T08:17:24.508Z,19.70
2018-05-05T08:18:29.710Z,19.70
2018-05-05T08:19:34.892Z,19.70
2018-05-05T08:20:39.793Z,19.70
2018-05-05T08:21:44.670Z,19.70
2018-05-05T08:22:49.821Z,19.70
2018-05-05T08:23:55.022Z,19.70
2018-05-05T08:25:00.119Z,19.70
2018-05-05T08:26:05.261Z,19.70
2018-05-05T08:27:10.393Z,19.70
2018-05-05T08:28:15.634Z,19.70
2018-05-05T08:29:20.631Z,19.70
2018-05-05T08:30:25.507Z,19.70
2018-05-05T08:31:30.398Z,19.70
2018-05-05T08:32:35.629Z,19.70
2018-05-05T08:33:40.653Z,19.70
2018-05-05T08:34:45.785Z,19.70
2018-05-05T08:35:50.589Z,19.70
2018-05-05T08:36:55.777Z,19.70
2018-05-05T08:38:00.638Z,19.70
2018-05-05T08:39:05.586Z,19.70
2018-05-05T08:40:10.433Z,19.70
2018-05-05T08:41:15.568Z,19.70
2018-05-05T08:42:20.429Z,19.70
2018-05-05T08:43:25.504Z,19.70
2018-05-05T08:44:30.524Z,19.70
2018-05-05T08:45:35.691Z,19.70
2018-05-05T08:46:40.421Z,19.70
2018-05-05T08:47:45.240Z,19.70
2018-05-05T08:48:50.048Z,19.80
2018-05-05T08:49:54.916Z,19.70
2018-05-05T08:50:59.893Z,19.70
2018-05-05T08:52:04.874Z,19.70
2018-05-05T08:53:09.710Z,19.80
2018-05-05T08:54:14.411Z,19.80
2018-05-05T08:55:19.375Z,19.80
2018-05-05T08:56:24.430Z,19.80
2018-05-05T08:57:29.530Z,19.80
2018-05-05T08:58:34.686Z,19.80
2018-05-05T08:59:39.477Z,19.80
2018-05-05T09:00:44.529Z,19.70
2018-05-05T09:01:49.427Z,19.70
2018-05-05T09:02:54.461Z,19.80
2018-05-05T09:03:59.311Z,19.80
2018-05-05T09:05:04.466Z,19.80
2018-05-05T09:06:09.617Z,19.80
2018-05-05T09:07:14.629Z,19.80
2018-05-05T09:08:19.601Z,19.80
2018-05-05T09:09:24.356Z,19.80
2018-05-05T09:10:29.443Z,19.80
2018-05-05T09:11:34.575Z,19.80
2018-05-05T09:12:39.462Z,19.80
2018-05-05T09:13:44.337Z,19.80
2018-05-05T09:14:49.041Z,19.80
2018-05-05T09:15:54.153Z,19.80
2018-05-05T09:16:58.885Z,19.80
2018-05-05T09:18:03.762Z,19.80
2018-05-05T09:19:08.613Z,19.80
2018-05-05T09:20:13.667Z,19.80
2018-05-05T09:21:18.386Z,19.80
2018-05-05T09:22:23.089Z,19.80
2018-05-05T09:23:28.153Z,19.80
2018-05-05T09:24:33.196Z,19.80
2018-05-05T09:25:38.204Z,19.80
2018-05-05T09:26:43.091Z,19.80
2018-05-05T09:27:48.214Z,19.80
2018-05-05T09:28:53.243Z,19.80
2018-05-05T09:29:58.274Z,19.80
2018-05-05T09:31:03.292Z,19.80
2018-05-05T09:32:08.122Z,19.80
2018-05-05T09:33:13.165Z,19.80
2018-05-05T09:34:18.064Z,19.80
2018-05-05T09:35:23.061Z,19.80
2018-05-05T09:36:27.910Z,19.80
2018-05-05T09:37:32.981Z,19.80
2018-05-05T09:38:38.007Z,19.80
2018-05-05T09:39:42.908Z,19.80
2018-05-05T09:40:47.701Z,19.80
2018-05-05T09:41:52.584Z,19.80
2018-05-05T09:42:57.502Z,19.80
2018-05-05T09:44:02.337Z,19.80
2018-05-05T09:45:07.327Z,19.80
2018-05-05T09:46:12.103Z,19.80
2018-05-05T09:47:16.813Z,19.80
2018-05-05T09:48:21.850Z,19.80
2018-05-05T09:49:27.625Z,19.80
2018-05-05T09:50:32.484Z,19.80
2018-05-05T09:51:37.428Z,19.80
2018-05-05T09:52:43.841Z,19.80
2018-05-05T09:53:49.140Z,19.80
2018-05-05T09:54:53.957Z,19.80
2018-05-05T09:55:58.929Z,19.80
2018-05-05T09:57:04.071Z,19.80
2018-05-05T09:58:08.712Z,19.80
2018-05-05T09:59:13.592Z,19.80
2018-05-05T10:00:18.304Z,19.80
2018-05-05T10:01:23.110Z,19.90
2018-05-05T10:02:27.990Z,19.90
2018-05-05T10:03:32.870Z,19.90
2018-05-05T10:04:37.706Z,19.80
2018-05-05T10:05:42.392Z,19.80
2018-05-05T10:06:47.164Z,19.90
2018-05-05T10:07:52.487Z,19.90
2018-05-05T10:08:57.424Z,19.90
2018-05-05T10:10:02.522Z,19.90
2018-05-05T10:11:07.248Z,19.90
2018-05-05T10:12:11.966Z,19.90
2018-05-05T10:13:17.005Z,19.90
2018-05-05T10:14:24.943Z,19.90
2018-05-05T10:15:29.790Z,19.90
2018-05-05T10:16:34.784Z,19.90
2018-05-05T10:17:39.811Z,19.90
2018-05-05T10:18:44.474Z,19.90
2018-05-05T10:19:49.598Z,19.90
2018-05-05T10:20:54.566Z,19.90
2018-05-05T10:21:59.792Z,19.90
2018-05-05T10:23:04.745Z,19.90
2018-05-05T10:24:09.663Z,19.90
2018-05-05T10:25:14.446Z,19.90
2018-05-05T10:26:19.334Z,19.90
2018-05-05T10:27:24.532Z,19.90
2018-05-05T10:28:29.530Z,19.90
2018-05-05T10:29:34.906Z,19.90
2018-05-05T10:30:39.841Z,19.90
2018-05-05T10:31:44.664Z,19.90
2018-05-05T10:32:49.727Z,19.90
2018-05-05T10:33:54.490Z,19.90
2018-05-05T10:34:59.383Z,19.90
2018-05-05T10:36:04.290Z,19.90
2018-05-05T10:37:09.447Z,19.90
2018-05-05T10:38:14.643Z,19.90
2018-05-05T10:39:19.629Z,19.90
2018-05-05T10:40:24.474Z,19.90
2018-05-05T10:41:29.597Z,19.90
2018-05-05T10:42:34.672Z,19.90
2018-05-05T10:43:39.729Z,19.90
2018-05-05T10:44:44.844Z,19.90
2018-05-05T10:45:49.644Z,19.90
2018-05-05T10:46:54.653Z,19.90
2018-05-05T10:47:59.550Z,19.90
2018-05-05T10:49:04.392Z,19.90
2018-05-05T10:50:09.472Z,19.90
2018-05-05T10:51:14.379Z,19.90
2018-05-05T10:52:19.369Z,19.90
2018-05-05T10:53:24.376Z,19.80
2018-05-05T10:54:29.273Z,19.80
2018-05-05T10:55:34.175Z,19.80
2018-05-05T10:56:38.910Z,19.90
2018-05-05T10:57:43.734Z,19.80
2018-05-05T10:58:48.538Z,19.90
2018-05-05T10:59:53.187Z,19.90
2018-05-05T11:00:57.876Z,19.90
2018-05-05T11:02:02.555Z,19.90
2018-05-05T11:03:07.420Z,19.90
2018-05-05T11:04:12.058Z,20.00
2018-05-05T11:05:17.018Z,20.00
2018-05-05T11:06:21.909Z,20.00
2018-05-05T11:07:26.741Z,20.00
2018-05-05T11:08:31.646Z,20.00
2018-05-05T11:09:36.559Z,20.00
2018-05-05T11:10:41.781Z,20.00
2018-05-05T11:11:46.820Z,20.00
2018-05-05T11:12:51.604Z,20.00
2018-05-05T11:13:56.364Z,20.00
2018-05-05T11:15:01.419Z,20.00
2018-05-05T11:16:06.264Z,20.00
2018-05-05T11:17:10.971Z,20.00
2018-05-05T11:18:15.943Z,20.00
2018-05-05T11:19:20.956Z,20.00
2018-05-05T11:20:25.812Z,20.00
2018-05-05T11:21:30.780Z,20.00
2018-05-05T11:22:35.695Z,20.00
2018-05-05T11:23:40.559Z,20.00
2018-05-05T11:24:45.551Z,20.00
2018-05-05T11:25:50.387Z,20.00
2018-05-05T11:26:55.508Z,19.90
2018-05-05T11:28:00.363Z,19.90
2018-05-05T11:29:05.280Z,19.90
2018-05-05T11:30:10.144Z,19.90
2018-05-05T11:31:14.996Z,19.90
2018-05-05T11:32:20.030Z,19.90
2018-05-05T11:33:24.852Z,20.00
2018-05-05T11:34:29.696Z,20.00
2018-05-05T11:35:34.504Z,20.00
2018-05-05T11:36:39.577Z,19.90
2018-05-05T11:37:44.656Z,19.90
2018-05-05T11:38:49.640Z,20.00
2018-05-05T11:39:54.355Z,20.00
2018-05-05T11:40:59.248Z,20.00
2018-05-05T11:42:04.188Z,20.00
2018-05-05T11:43:09.033Z,20.00
2018-05-05T11:44:14.030Z,20.00
2018-05-05T11:45:18.860Z,20.00
2018-05-05T11:46:23.815Z,20.00
2018-05-05T11:47:28.547Z,20.00
2018-05-05T11:48:33.558Z,20.00
2018-05-05T11:49:38.518Z,20.00
2018-05-05T11:50:43.359Z,20.00
2018-05-05T11:51:48.381Z,20.00
2018-05-05T11:52:53.097Z,20.00
2018-05-05T11:53:57.946Z,20.00
2018-05-05T11:55:03.034Z,19.90
2018-05-05T11:56:07.922Z,20.00
2018-05-05T11:57:12.849Z,20.00
2018-05-05T11:58:17.661Z,20.00
2018-05-05T11:59:22.626Z,19.90
2018-05-05T12:00:27.496Z,20.00
2018-05-05T12:01:32.390Z,20.00
2018-05-05T12:02:37.204Z,19.90
2018-05-05T12:03:41.985Z,19.90
2018-05-05T12:04:46.771Z,20.00
2018-05-05T12:05:51.815Z,19.90
2018-05-05T12:06:56.788Z,19.90
2018-05-05T12:08:01.466Z,20.00
2018-05-05T12:09:06.129Z,20.00
2018-05-05T12:10:11.120Z,20.00
2018-05-05T12:11:15.967Z,20.00
2018-05-05T12:12:20.566Z,20.00
2018-05-05T12:13:25.445Z,20.00
2018-05-05T12:14:30.293Z,20.00
2018-05-05T12:15:35.055Z,20.00
2018-05-05T12:16:39.989Z,20.00
2018-05-05T12:17:44.957Z,20.00
2018-05-05T12:18:49.762Z,20.10
2018-05-05T12:19:54.836Z,20.10
2018-05-05T12:20:59.753Z,20.10
2018-05-05T12:22:04.769Z,20.10
2018-05-05T12:23:09.743Z,20.10
2018-05-05T12:24:14.721Z,20.10
2018-05-05T12:25:19.823Z,20.10
2018-05-05T12:26:24.818Z,20.10
2018-05-05T12:27:29.843Z,20.10
2018-05-05T12:28:35.269Z,20.10
2018-05-05T12:29:40.402Z,20.10
2018-05-05T12:30:45.437Z,20.10
2018-05-05T12:31:50.580Z,20.10
2018-05-05T12:32:55.855Z,20.10
2018-05-05T12:34:00.964Z,20.10
2018-05-05T12:35:06.015Z,20.10
2018-05-05T12:36:10.932Z,20.10
2018-05-05T12:37:15.643Z,20.10
2018-05-05T12:38:20.554Z,20.00
2018-05-05T12:39:25.557Z,20.00
2018-05-05T12:40:30.625Z,20.00
2018-05-05T12:41:35.778Z,20.00
2018-05-05T12:42:40.556Z,20.00
2018-05-05T12:43:45.526Z,20.10
2018-05-05T12:44:50.628Z,20.10
2018-05-05T12:45:55.475Z,20.10
2018-05-05T12:47:00.269Z,20.10
2018-05-05T12:48:05.155Z,20.10
2018-05-05T12:49:10.005Z,20.10
2018-05-05T12:50:14.850Z,20.10
2018-05-05T12:51:19.510Z,20.10
2018-05-05T12:52:24.341Z,20.10
2018-05-05T12:53:29.043Z,20.10
2018-05-05T12:54:33.907Z,20.20
2018-05-05T12:55:38.535Z,20.20
2018-05-05T12:56:43.490Z,20.20
2018-05-05T12:57:48.585Z,20.20
2018-05-05T12:58:53.514Z,20.20
2018-05-05T12:59:58.105Z,20.20
2018-05-05T13:01:03.151Z,20.20
2018-05-05T13:02:19.820Z,20.20
2018-05-05T13:03:24.434Z,20.20
2018-05-05T13:04:29.032Z,20.20
2018-05-05T13:05:33.908Z,20.20
2018-05-05T13:06:38.684Z,20.20
2018-05-05T13:07:43.460Z,20.20
2018-05-05T13:08:48.431Z,20.20
2018-05-05T13:09:53.162Z,20.20
2018-05-05T13:10:58.173Z,20.20
2018-05-05T13:12:03.048Z,20.20
2018-05-05T13:13:07.955Z,20.20
2018-05-05T13:14:12.695Z,20.20
2018-05-05T13:15:17.538Z,20.20
2018-05-05T13:16:22.376Z,20.20
2018-05-05T13:17:27.103Z,20.20
2018-05-05T13:18:31.923Z,20.20
2018-05-05T13:19:36.612Z,20.20
2018-05-05T13:20:41.673Z,20.20
2018-05-05T13:21:46.560Z,20.20
2018-05-05T13:22:51.589Z,20.20
2018-05-05T13:23:56.666Z,20.20
2018-05-05T13:25:02.570Z,20.20
2018-05-05T13:26:07.635Z,20.20
2018-05-05T13:27:12.481Z,20.20
2018-05-05T13:28:17.436Z,20.20
2018-05-05T13:29:22.239Z,20.20
2018-05-05T13:30:27.299Z,20.20
2018-05-05T13:31:32.177Z,20.20
2018-05-05T13:32:37.071Z,20.20
2018-05-05T13:33:42.068Z,20.20
2018-05-05T13:34:47.051Z,20.20
2018-05-05T13:35:52.015Z,20.20
2018-05-05T13:36:57.003Z,20.20
2018-05-05T13:38:01.932Z,20.20
2018-05-05T13:39:07.042Z,20.20
2018-05-05T13:40:11.991Z,20.20
2018-05-05T13:41:17.027Z,20.20
2018-05-05T13:42:21.807Z,20.20
2018-05-05T13:43:26.897Z,20.20
2018-05-05T13:44:31.807Z,20.20
2018-05-05T13:45:38.094Z,20.20
2018-05-05T13:46:43.059Z,20.20
2018-05-05T13:47:48.057Z,20.20
2018-05-05T13:48:54.008Z,20.20
2018-05-05T13:49:58.635Z,20.20
2018-05-05T13:51:03.381Z,20.20
2018-05-05T13:52:08.138Z,20.20
2018-05-05T13:53:12.965Z,20.20
2018-05-05T13:54:17.870Z,20.20
2018-05-05T13:55:22.613Z,20.20
2018-05-05T13:56:27.627Z,20.20